createdAt,value
2023-09-27T00:01:13.662Z,0.77
2023-09-27T00:03:40.378Z,0.73
2023-09-27T00:06:08.511Z,0.90
2023-09-27T00:08:35.542Z,0.73
2023-09-27T00:11:03.834Z,0.90
2023-09-27T00:13:30.568Z,0.63
2023-09-27T00:15:57.229Z,0.85
2023-09-27T00:18:24.302Z,0.80
2023-09-27T00:20:52.327Z,0.68
2023-09-27T00:23:20.377Z,0.57
2023-09-27T00:25:47.028Z,0.70
2023-09-27T00:28:13.632Z,0.80
2023-09-27T00:30:40.297Z,0.90
2023-09-27T00:33:07.120Z,0.75
2023-09-27T00:35:33.811Z,0.65
2023-09-27T00:38:00.480Z,0.85
2023-09-27T00:40:29.202Z,0.73
2023-09-27T00:42:56.084Z,0.82
2023-09-27T00:45:22.731Z,0.77
2023-09-27T00:47:51.954Z,0.70
2023-09-27T00:50:19.116Z,0.70
2023-09-27T00:52:47.917Z,0.65
2023-09-27T00:55:17.828Z,0.80
2023-09-27T00:57:46.311Z,0.75
2023-09-27T01:00:16.190Z,0.65
2023-09-27T01:02:43.123Z,0.60
2023-09-27T01:05:10.661Z,0.80
2023-09-27T01:07:39.739Z,0.82
2023-09-27T01:10:08.915Z,0.70
2023-09-27T01:12:36.210Z,0.60
2023-09-27T01:15:05.111Z,0.65
2023-09-27T01:17:31.886Z,0.45
2023-09-27T01:19:58.645Z,0.57
2023-09-27T01:22:25.397Z,0.52
2023-09-27T01:24:55.741Z,0.90
2023-09-27T01:27:23.491Z,0.80
2023-09-27T01:29:50.268Z,0.60
2023-09-27T01:32:18.608Z,0.60
2023-09-27T01:34:45.685Z,1.33
2023-09-27T01:37:12.669Z,0.60
2023-09-27T01:39:39.334Z,0.70
2023-09-27T01:42:07.400Z,0.63
2023-09-27T01:44:34.018Z,0.60
2023-09-27T01:47:00.654Z,0.55
2023-09-27T01:49:27.411Z,0.73
2023-09-27T01:51:54.197Z,0.70
2023-09-27T01:54:20.851Z,0.57
2023-09-27T01:56:47.480Z,0.80
2023-09-27T01:59:15.540Z,0.90
2023-09-27T02:01:42.240Z,0.60
2023-09-27T02:04:08.990Z,0.47
2023-09-27T02:06:35.701Z,0.60
2023-09-27T02:09:02.382Z,0.57
2023-09-27T02:11:29.130Z,0.57
2023-09-27T02:13:55.889Z,0.60
2023-09-27T02:16:23.970Z,0.55
2023-09-27T02:18:50.789Z,0.60
2023-09-27T02:21:17.618Z,0.70
2023-09-27T02:23:44.319Z,0.50
2023-09-27T02:26:11.305Z,0.65
2023-09-27T02:28:37.956Z,0.68
2023-09-27T02:31:09.784Z,0.50
2023-09-27T02:33:38.443Z,0.57
2023-09-27T02:36:05.601Z,0.65
2023-09-27T02:38:32.370Z,0.65
2023-09-27T02:40:59.092Z,0.60
2023-09-27T02:43:25.803Z,0.57
2023-09-27T02:45:53.477Z,0.55
2023-09-27T02:48:20.258Z,0.40
2023-09-27T02:50:49.845Z,0.70
2023-09-27T02:53:16.631Z,0.65
2023-09-27T02:55:43.634Z,0.52
2023-09-27T02:58:10.281Z,0.40
2023-09-27T03:00:37.711Z,0.50
2023-09-27T03:03:04.779Z,0.40
2023-09-27T03:05:36.452Z,0.50
2023-09-27T03:08:05.354Z,0.40
2023-09-27T03:10:32.588Z,0.50
2023-09-27T03:13:00.090Z,0.50
2023-09-27T03:15:27.046Z,0.60
2023-09-27T03:17:53.760Z,0.30
2023-09-27T03:20:23.684Z,0.50
2023-09-27T03:22:50.627Z,0.50
2023-09-27T03:25:19.508Z,0.40
2023-09-27T03:27:47.014Z,0.60
2023-09-27T03:30:13.916Z,0.57
2023-09-27T03:32:40.593Z,1.08
2023-09-27T03:35:08.674Z,0.70
2023-09-27T03:37:38.206Z,1.10
2023-09-27T03:42:33.858Z,0.50
2023-09-27T03:45:00.492Z,0.37
2023-09-27T03:47:27.543Z,0.60
2023-09-27T03:49:54.286Z,0.32
2023-09-27T03:52:21.038Z,0.50
2023-09-27T03:54:47.671Z,0.50
2023-09-27T03:57:14.282Z,0.50
2023-09-27T03:59:42.236Z,0.70
2023-09-27T04:02:08.960Z,0.60
2023-09-27T04:04:35.960Z,0.52
2023-09-27T04:07:02.744Z,0.60
2023-09-27T04:09:30.024Z,0.50
2023-09-27T04:11:56.851Z,0.50
2023-09-27T04:14:23.770Z,0.50
2023-09-27T04:16:51.812Z,0.65
2023-09-27T04:19:19.062Z,0.50
2023-09-27T04:21:46.374Z,0.60
2023-09-27T04:24:13.077Z,0.50
2023-09-27T04:26:39.728Z,0.50
2023-09-27T04:29:08.427Z,0.43
2023-09-27T04:31:36.026Z,0.50
2023-09-27T04:34:04.240Z,0.40
2023-09-27T04:36:30.847Z,0.60
2023-09-27T04:38:57.480Z,0.40
2023-09-27T04:41:24.131Z,0.40
2023-09-27T04:43:50.943Z,0.47
2023-09-27T04:46:19.284Z,0.40
2023-09-27T04:48:46.515Z,0.60
2023-09-27T04:51:14.592Z,0.90
2023-09-27T04:53:41.470Z,0.65
2023-09-27T04:56:08.821Z,0.57
2023-09-27T04:58:37.712Z,0.63
2023-09-27T05:01:07.155Z,0.50
2023-09-27T05:03:34.392Z,0.60
2023-09-27T05:06:01.545Z,0.60
2023-09-27T05:08:29.610Z,0.80
2023-09-27T05:10:57.447Z,0.60
2023-09-27T05:13:24.360Z,0.50
2023-09-27T05:15:51.328Z,0.55
2023-09-27T05:18:18.055Z,0.68
2023-09-27T05:20:45.241Z,0.68
2023-09-27T05:23:12.015Z,0.70
2023-09-27T05:25:40.095Z,0.55
2023-09-27T05:28:06.757Z,0.52
2023-09-27T05:30:33.488Z,0.60
2023-09-27T05:33:00.278Z,0.80
2023-09-27T05:35:27.187Z,0.70
2023-09-27T05:37:53.954Z,0.70
2023-09-27T05:40:20.698Z,0.65
2023-09-27T05:42:48.705Z,0.55
2023-09-27T05:45:15.498Z,0.50
2023-09-27T05:47:42.620Z,0.80
2023-09-27T05:50:12.397Z,0.63
2023-09-27T05:52:40.284Z,0.60
2023-09-27T05:55:08.205Z,1.88
2023-09-27T05:57:34.953Z,0.80
2023-09-27T06:00:14.167Z,1.85
2023-09-27T06:02:41.225Z,1.05
2023-09-27T06:05:09.082Z,1.20
2023-09-27T06:07:35.816Z,0.73
2023-09-27T06:10:02.542Z,1.17
2023-09-27T06:12:29.404Z,1.05
2023-09-27T06:14:56.040Z,0.85
2023-09-27T06:17:24.550Z,0.77
2023-09-27T06:19:51.277Z,0.90
2023-09-27T06:22:18.060Z,0.80
2023-09-27T06:24:46.963Z,0.80
2023-09-27T06:27:13.642Z,0.60
2023-09-27T06:29:41.453Z,0.90
2023-09-27T06:32:08.582Z,0.93
2023-09-27T06:34:36.685Z,1.23
2023-09-27T06:37:03.309Z,0.90
2023-09-27T06:39:29.982Z,0.82
2023-09-27T06:41:56.838Z,0.90
2023-09-27T06:44:23.505Z,0.93
2023-09-27T06:46:50.983Z,0.90
2023-09-27T06:49:18.062Z,0.80
2023-09-27T06:51:46.282Z,1.63
2023-09-27T06:54:12.925Z,2.33
2023-09-27T06:56:40.261Z,1.27
2023-09-27T06:59:07.052Z,1.30
2023-09-27T07:01:33.815Z,2.13
2023-09-27T07:04:04.635Z,1.50
2023-09-27T07:06:31.389Z,1.70
2023-09-27T07:08:59.520Z,1.40
2023-09-27T07:11:26.446Z,2.33
2023-09-27T07:13:53.310Z,1.90
2023-09-27T07:16:21.757Z,1.65
2023-09-27T07:18:51.731Z,1.80
2023-09-27T07:21:21.076Z,2.60
2023-09-27T07:23:48.728Z,1.88
2023-09-27T07:26:17.421Z,1.50
2023-09-27T07:28:45.093Z,0.98
2023-09-27T07:31:12.567Z,1.80
2023-09-27T07:33:39.276Z,1.45
2023-09-27T07:36:09.755Z,1.58
2023-09-27T07:38:38.382Z,1.60
2023-09-27T07:41:05.670Z,1.30
2023-09-27T07:43:33.773Z,1.30
2023-09-27T07:46:01.982Z,1.50
2023-09-27T07:48:30.434Z,1.42
2023-09-27T07:50:57.049Z,1.67
2023-09-27T07:53:23.691Z,1.58
2023-09-27T07:55:52.400Z,1.30
2023-09-27T07:58:19.734Z,1.60
2023-09-27T08:00:47.686Z,1.15
2023-09-27T08:03:15.609Z,1.48
2023-09-27T08:05:46.326Z,1.70
2023-09-27T08:08:14.857Z,1.23
2023-09-27T08:10:44.819Z,1.35
2023-09-27T08:13:13.077Z,1.63
2023-09-27T08:15:40.658Z,1.52
2023-09-27T08:18:09.202Z,1.70
2023-09-27T08:20:36.284Z,1.25
2023-09-27T08:23:03.673Z,1.67
2023-09-27T08:25:30.399Z,1.63
2023-09-27T08:27:57.605Z,1.77
2023-09-27T08:30:24.609Z,1.40
2023-09-27T08:32:52.632Z,1.52
2023-09-27T08:35:20.957Z,1.63
2023-09-27T08:37:48.689Z,1.55
2023-09-27T08:40:16.372Z,1.73
2023-09-27T08:42:44.152Z,1.55
2023-09-27T08:45:13.289Z,1.52
2023-09-27T08:47:42.282Z,1.60
2023-09-27T08:50:15.848Z,1.77
2023-09-27T08:52:49.693Z,1.88
2023-09-27T08:55:17.970Z,1.50
2023-09-27T08:57:47.137Z,1.45
2023-09-27T09:00:21.173Z,1.77
2023-09-27T09:02:50.591Z,1.58
2023-09-27T09:07:46.584Z,2.05
2023-09-27T09:10:14.724Z,1.85
2023-09-27T09:12:42.776Z,1.77
2023-09-27T09:15:15.678Z,1.80
2023-09-27T09:17:49.326Z,1.40
2023-09-27T09:20:24.713Z,1.60
2023-09-27T09:22:55.870Z,1.30
2023-09-27T09:25:23.800Z,1.60
2023-09-27T09:28:04.196Z,1.52
2023-09-27T09:30:37.508Z,1.50
2023-09-27T09:33:09.921Z,1.20
2023-09-27T09:35:37.746Z,1.83
2023-09-27T09:38:05.825Z,2.00
2023-09-27T09:40:33.067Z,1.83
2023-09-27T09:43:01.094Z,1.73
2023-09-27T09:45:29.963Z,2.08
2023-09-27T09:47:57.655Z,1.52
2023-09-27T09:50:24.766Z,2.13
2023-09-27T09:52:58.362Z,1.75
2023-09-27T09:55:45.665Z,1.95
2023-09-27T09:58:30.647Z,1.80
2023-09-27T10:01:02.207Z,1.83
2023-09-27T10:03:32.286Z,1.80
2023-09-27T10:06:02.633Z,2.17
2023-09-27T10:08:33.781Z,1.30
2023-09-27T10:11:04.925Z,1.00
2023-09-27T10:13:34.969Z,2.25
2023-09-27T10:16:02.547Z,1.48
2023-09-27T10:18:31.069Z,2.00
2023-09-27T10:21:09.217Z,1.70
2023-09-27T10:23:58.314Z,2.13
2023-09-27T10:26:38.147Z,1.60
2023-09-27T10:29:16.354Z,2.25
2023-09-27T10:32:22.949Z,2.03
2023-09-27T10:34:50.604Z,2.00
2023-09-27T10:37:19.716Z,2.25
2023-09-27T10:42:44.059Z,2.20
2023-09-27T10:45:11.055Z,2.20
2023-09-27T10:47:37.871Z,1.98
2023-09-27T10:50:05.645Z,1.95
2023-09-27T10:52:32.410Z,1.95
2023-09-27T10:55:09.609Z,2.10
2023-09-27T10:57:36.428Z,1.98
2023-09-27T11:00:10.866Z,2.25
2023-09-27T11:02:38.024Z,1.80
2023-09-27T11:05:05.911Z,2.00
2023-09-27T11:07:47.180Z,1.88
2023-09-27T11:10:32.093Z,2.30
2023-09-27T11:13:10.956Z,1.98
2023-09-27T11:15:39.641Z,1.63
2023-09-27T11:18:08.608Z,1.75
2023-09-27T11:20:35.914Z,1.92
2023-09-27T11:23:03.423Z,1.92
2023-09-27T11:25:31.271Z,1.95
2023-09-27T11:27:58.191Z,1.83
2023-09-27T11:30:31.315Z,2.17
2023-09-27T11:33:00.670Z,1.85
2023-09-27T11:38:09.076Z,1.73
2023-09-27T11:40:37.195Z,2.00
2023-09-27T11:43:04.276Z,1.90
2023-09-27T11:45:42.748Z,2.08
2023-09-27T11:48:11.060Z,2.17
2023-09-27T11:50:38.647Z,2.13
2023-09-27T11:53:05.782Z,1.90
2023-09-27T11:55:32.561Z,2.15
2023-09-27T11:58:00.197Z,2.00
2023-09-27T12:00:27.280Z,1.83
2023-09-27T12:02:58.025Z,2.00
2023-09-27T12:05:27.565Z,2.20
2023-09-27T12:10:21.635Z,2.50
2023-09-27T12:12:49.665Z,1.90
2023-09-27T12:15:16.498Z,2.55
2023-09-27T12:17:43.940Z,2.10
2023-09-27T12:20:22.447Z,2.35
2023-09-27T12:22:55.545Z,2.35
2023-09-27T12:25:22.181Z,2.92
2023-09-27T12:27:48.827Z,2.40
2023-09-27T12:30:15.609Z,2.25
2023-09-27T12:32:42.383Z,2.00
2023-09-27T12:35:09.343Z,2.15
2023-09-27T12:37:36.655Z,2.15
2023-09-27T12:40:05.688Z,2.08
2023-09-27T12:42:32.516Z,2.38
2023-09-27T12:44:59.373Z,2.10
2023-09-27T12:47:26.798Z,2.30
2023-09-27T12:49:53.610Z,2.00
2023-09-27T12:52:20.340Z,2.50
2023-09-27T12:54:48.524Z,2.03
2023-09-27T12:57:16.522Z,2.17
2023-09-27T12:59:43.186Z,2.22
2023-09-27T13:02:09.826Z,2.45
2023-09-27T13:04:36.579Z,2.00
2023-09-27T13:07:04.230Z,2.55
2023-09-27T13:09:30.942Z,2.42
2023-09-27T13:11:57.740Z,1.90
2023-09-27T13:14:25.738Z,2.28
2023-09-27T13:16:52.560Z,1.42
2023-09-27T13:19:19.266Z,2.00
2023-09-27T13:21:47.217Z,2.40
2023-09-27T13:24:14.084Z,1.88
2023-09-27T13:26:40.981Z,2.00
2023-09-27T13:29:08.047Z,2.75
2023-09-27T13:31:36.090Z,1.77
2023-09-27T13:34:10.044Z,1.80
2023-09-27T13:36:40.373Z,1.70
2023-09-27T13:39:07.459Z,1.80
2023-09-27T13:41:41.846Z,1.88
2023-09-27T13:44:09.140Z,1.73
2023-09-27T13:46:37.255Z,1.90
2023-09-27T13:49:04.431Z,2.60
2023-09-27T13:51:35.865Z,1.80
2023-09-27T13:54:02.600Z,1.70
2023-09-27T13:56:29.787Z,1.70
2023-09-27T13:58:56.433Z,1.52
2023-09-27T14:01:23.167Z,1.90
2023-09-27T14:03:51.217Z,1.90
2023-09-27T14:06:18.082Z,2.05
2023-09-27T14:08:44.848Z,1.98
2023-09-27T14:11:13.202Z,1.90
2023-09-27T14:13:40.007Z,1.50
2023-09-27T14:16:08.453Z,2.10
2023-09-27T14:18:35.259Z,2.87
2023-09-27T14:21:04.324Z,2.88
2023-09-27T14:23:31.043Z,3.75
2023-09-27T14:25:57.721Z,3.35
2023-09-27T14:28:25.380Z,3.47
2023-09-27T14:30:52.068Z,2.47
2023-09-27T14:33:19.216Z,2.75
2023-09-27T14:38:18.213Z,3.13
2023-09-27T14:43:11.484Z,3.38
2023-09-27T14:45:38.561Z,3.47
2023-09-27T14:48:05.841Z,3.35
2023-09-27T14:50:32.675Z,3.47
2023-09-27T14:52:59.720Z,3.40
2023-09-27T14:55:28.108Z,3.60
2023-09-27T14:57:54.898Z,3.37
2023-09-27T15:00:23.715Z,3.42
2023-09-27T15:02:50.757Z,3.33
2023-09-27T15:05:17.544Z,3.92
2023-09-27T15:07:44.278Z,3.63
2023-09-27T15:10:11.255Z,3.38
2023-09-27T15:12:39.497Z,3.72
2023-09-27T15:15:07.148Z,3.50
2023-09-27T15:17:38.783Z,3.63
2023-09-27T15:20:06.865Z,3.70
2023-09-27T15:22:34.019Z,3.55
2023-09-27T15:25:00.762Z,3.60
2023-09-27T15:27:27.423Z,2.92
2023-09-27T15:29:55.529Z,3.42
2023-09-27T15:32:22.257Z,3.20
2023-09-27T15:34:49.033Z,3.45
2023-09-27T15:37:16.212Z,3.25
2023-09-27T15:39:43.060Z,3.60
2023-09-27T15:42:10.570Z,2.92
2023-09-27T15:44:41.396Z,3.33
2023-09-27T15:47:12.518Z,3.28
2023-09-27T15:49:39.182Z,3.70
2023-09-27T15:52:05.866Z,3.13
2023-09-27T15:54:32.469Z,3.63
2023-09-27T15:56:59.128Z,3.03
2023-09-27T15:59:25.796Z,3.17
2023-09-27T16:01:53.055Z,3.88
2023-09-27T16:04:21.563Z,3.42
2023-09-27T16:06:48.207Z,2.70
2023-09-27T16:09:16.525Z,3.15
2023-09-27T16:11:44.201Z,2.87
2023-09-27T16:14:11.343Z,2.95
2023-09-27T16:16:38.089Z,3.22
2023-09-27T16:19:05.073Z,3.80
2023-09-27T16:21:33.136Z,3.13
2023-09-27T16:24:01.496Z,3.30
2023-09-27T16:26:28.491Z,3.10
2023-09-27T16:28:55.205Z,2.90
2023-09-27T16:31:22.603Z,2.85
2023-09-27T16:33:49.533Z,2.80
2023-09-27T16:36:17.784Z,2.90
2023-09-27T16:38:45.818Z,2.97
2023-09-27T16:41:12.473Z,2.63
2023-09-27T16:43:40.979Z,3.05
2023-09-27T16:46:10.473Z,2.90
2023-09-27T16:48:37.594Z,2.83
2023-09-27T16:51:04.206Z,3.28
2023-09-27T16:53:30.831Z,2.70
2023-09-27T16:55:58.831Z,2.78
2023-09-27T16:58:28.290Z,2.92
2023-09-27T17:00:56.615Z,2.83
2023-09-27T17:03:23.388Z,2.97
2023-09-27T17:05:50.192Z,3.00
2023-09-27T17:08:19.739Z,3.22
2023-09-27T17:10:46.924Z,2.92
2023-09-27T17:13:14.960Z,2.80
2023-09-27T17:15:42.741Z,2.85
2023-09-27T17:18:09.387Z,2.92
2023-09-27T17:20:36.041Z,3.00
2023-09-27T17:23:04.244Z,2.60
2023-09-27T17:25:30.971Z,3.10
2023-09-27T17:27:57.640Z,3.13
2023-09-27T17:30:25.752Z,2.67
2023-09-27T17:32:52.430Z,3.22
2023-09-27T17:35:19.207Z,2.90
2023-09-27T17:37:46.038Z,2.70
2023-09-27T17:40:13.217Z,2.70
2023-09-27T17:42:39.924Z,2.95
2023-09-27T17:45:09.223Z,3.15
2023-09-27T17:47:37.380Z,2.90
2023-09-27T17:50:04.949Z,2.83
2023-09-27T17:52:31.746Z,2.58
2023-09-27T17:54:58.477Z,3.05
2023-09-27T17:57:25.098Z,3.03
2023-09-27T17:59:51.714Z,3.03
2023-09-27T18:02:18.542Z,2.58
2023-09-27T18:04:46.905Z,2.65
2023-09-27T18:07:13.775Z,2.65
2023-09-27T18:09:40.513Z,3.00
2023-09-27T18:12:07.661Z,2.88
2023-09-27T18:14:34.279Z,2.75
2023-09-27T18:17:01.046Z,2.63
2023-09-27T18:19:27.808Z,2.58
2023-09-27T18:21:55.819Z,2.63
2023-09-27T18:24:22.726Z,3.08
2023-09-27T18:26:49.389Z,3.10
2023-09-27T18:29:16.153Z,2.75
2023-09-27T18:31:45.596Z,2.50
2023-09-27T18:34:12.943Z,2.60
2023-09-27T18:36:39.632Z,2.67
2023-09-27T18:39:07.649Z,2.78
2023-09-27T18:41:34.281Z,2.45
2023-09-27T18:44:01.078Z,3.05
2023-09-27T18:46:27.838Z,2.90
2023-09-27T18:48:54.718Z,3.20
2023-09-27T18:51:22.268Z,2.72
2023-09-27T18:53:49.488Z,2.88
2023-09-27T18:56:18.518Z,2.78
2023-09-27T18:58:45.325Z,3.13
2023-09-27T19:01:12.530Z,2.75
2023-09-27T19:03:39.274Z,3.08
2023-09-27T19:06:06.240Z,2.78
2023-09-27T19:08:32.958Z,4.40
2023-09-27T19:10:59.672Z,3.20
2023-09-27T19:13:27.826Z,2.53
2023-09-27T19:15:57.006Z,2.75
2023-09-27T19:18:23.677Z,2.80
2023-09-27T19:20:50.448Z,2.75
2023-09-27T19:23:17.070Z,2.80
2023-09-27T19:25:43.725Z,2.75
2023-09-27T19:28:10.484Z,3.03
2023-09-27T19:30:40.701Z,3.08
2023-09-27T19:33:08.575Z,3.03
2023-09-27T19:35:35.343Z,3.10
2023-09-27T19:38:02.019Z,2.90
2023-09-27T19:40:28.651Z,3.17
2023-09-27T19:42:55.312Z,2.42
2023-09-27T19:45:22.464Z,3.08
2023-09-27T19:47:50.501Z,2.50
2023-09-27T19:50:17.377Z,3.17
2023-09-27T19:52:45.603Z,2.80
2023-09-27T19:55:12.951Z,2.78
2023-09-27T19:57:39.584Z,2.33
2023-09-27T20:00:09.228Z,2.50
2023-09-27T20:02:35.962Z,2.53
2023-09-27T20:05:04.395Z,2.63
2023-09-27T20:07:31.470Z,2.77
2023-09-27T20:09:58.111Z,2.85
2023-09-27T20:12:24.839Z,2.60
2023-09-27T20:14:51.563Z,3.00
2023-09-27T20:17:18.517Z,2.92
2023-09-27T20:19:45.175Z,2.72
2023-09-27T20:22:13.336Z,2.72
2023-09-27T20:24:40.318Z,2.50
2023-09-27T20:27:06.948Z,3.38
2023-09-27T20:29:33.691Z,2.63
2023-09-27T20:32:00.513Z,3.00
2023-09-27T20:34:27.242Z,2.65
2023-09-27T20:36:53.874Z,2.70
2023-09-27T20:39:21.911Z,2.30
2023-09-27T20:41:48.557Z,2.55
2023-09-27T20:44:15.320Z,3.05
2023-09-27T20:46:42.104Z,3.10
2023-09-27T20:49:08.789Z,3.15
2023-09-27T20:51:35.398Z,2.60
2023-09-27T20:54:02.352Z,3.05
2023-09-27T20:56:30.552Z,2.80
2023-09-27T20:58:57.210Z,3.10
2023-09-27T21:01:28.975Z,2.65
2023-09-27T21:03:55.973Z,3.03
2023-09-27T21:06:28.658Z,2.72
2023-09-27T21:08:56.667Z,4.45
2023-09-27T21:11:24.730Z,2.92
2023-09-27T21:13:58.303Z,2.92
2023-09-27T21:16:26.287Z,3.17
2023-09-27T21:18:54.303Z,3.00
2023-09-27T21:21:21.766Z,2.88
2023-09-27T21:23:48.434Z,2.88
2023-09-27T21:26:15.159Z,3.22
2023-09-27T21:28:41.986Z,2.55
2023-09-27T21:31:11.701Z,2.65
2023-09-27T21:33:38.518Z,2.80
2023-09-27T21:36:05.620Z,2.80
2023-09-27T21:38:32.279Z,2.80
2023-09-27T21:40:59.105Z,2.70
2023-09-27T21:43:25.907Z,2.58
2023-09-27T21:45:53.017Z,2.78
2023-09-27T21:48:25.082Z,2.97
2023-09-27T21:50:52.137Z,2.95
2023-09-27T21:53:18.790Z,2.75
2023-09-27T21:55:45.426Z,2.50
2023-09-27T21:58:12.078Z,2.05
2023-09-27T22:00:38.782Z,2.20
2023-09-27T22:03:05.903Z,2.72
2023-09-27T22:05:34.422Z,2.60
2023-09-27T22:08:01.570Z,2.80
2023-09-27T22:10:35.349Z,2.75
2023-09-27T22:13:22.322Z,2.95
2023-09-27T22:15:54.316Z,2.50
2023-09-27T22:18:21.960Z,2.70
2023-09-27T22:20:50.523Z,2.70
2023-09-27T22:23:32.363Z,2.60
2023-09-27T22:26:00.325Z,2.85
2023-09-27T22:28:30.026Z,2.60
2023-09-27T22:30:56.880Z,2.40
2023-09-27T22:33:30.532Z,2.85
2023-09-27T22:35:58.674Z,2.92
2023-09-27T22:38:25.299Z,2.55
2023-09-27T22:40:52.291Z,2.63
2023-09-27T22:43:19.102Z,2.50
2023-09-27T22:45:49.177Z,2.30
2023-09-27T22:48:16.983Z,2.45
2023-09-27T22:50:49.499Z,1.73
2023-09-27T22:53:19.138Z,2.80
2023-09-27T22:56:00.084Z,2.42
2023-09-27T22:58:28.740Z,2.60
2023-09-27T23:00:58.528Z,2.30
2023-09-27T23:03:27.865Z,2.20
2023-09-27T23:08:28.451Z,1.33
2023-09-27T23:10:56.339Z,2.55
2023-09-27T23:13:29.299Z,2.38
2023-09-27T23:15:56.365Z,2.15
2023-09-27T23:18:30.962Z,2.45
2023-09-27T23:20:58.949Z,2.22
2023-09-27T23:23:27.117Z,2.13
2023-09-27T23:25:55.274Z,2.10
2023-09-27T23:28:31.152Z,2.23
2023-09-27T23:31:09.115Z,2.38
2023-09-27T23:33:42.679Z,1.65
2023-09-27T23:36:23.833Z,1.70
2023-09-27T23:38:58.277Z,1.90
2023-09-27T23:41:32.042Z,2.33
2023-09-27T23:44:05.917Z,2.10
2023-09-27T23:46:38.335Z,2.28
2023-09-27T23:49:05.578Z,2.35
2023-09-27T23:51:33.192Z,2.20
2023-09-27T23:54:03.682Z,2.25
2023-09-27T23:56:35.690Z,2.15
2023-09-27T23:59:21.052Z,2.28
